Elkton, Michigan
Current Conditions -  °F | °C
As of 12:19 PM on Friday 24 Oct 2014 (Local Time) from KBAX Reporting Station
Overcast Overcast  
Wind Chill: 52°   Ceiling: 3200
Heat Index: 52°   Visibility: 10mi
Dew Point: 46°   Wind: 6mph
Humidity: 79%   Direction: 270°W
Pressure: 30.05"   Gusts: NA
Location:  43.82°N, 83.18°W
Report Text: KBAX 241619Z AUTO 27005KT 10SM OVC032 11/08 A3005 RMK AO2 T01120076
Loading
Personal Weather Stations






























Interactive Weather Map
Tropical Storm Tracking
New forecast layout! Learn more

10-Day Weather Forecast

Advertisements
Track Severe Weather on mobile